Meteo Giornale » Osservazioni meteo Stati Uniti (USA) » Scott-Belleville
ore: 12:55 - Osservazioni Meteo Scott-Belleville
Lat. 38° 33' N Lon. 89° 51' W Alt. 138 metri s.l.m.
35 °C
Poco Nuvoloso
Temp. 24 Ore
19 °C
35 °C
Sud-Ovest
16.7 Km/h
Dew point 21 °C
Umidità 44 %
Visibilità 10 Km
Il sole sorge alle ore 06:28
Il sole tramonta alle ore 19:31
| Data e Ora | Cielo e Fenomeni | T °C | DP °C | Um. % | Pres. hPa | Vis. km | Vento km/h | |
|---|---|---|---|---|---|---|---|---|
| Oggi h: 12:55 | Poco Nuvoloso | 35 | 21 | 44 | 1016 | 10 | SO 16.7 | |
| Oggi h: 11:55 | Sereno | 33 | 21 | 49 | 1017 | 10 | SO 16.7 | |
| Oggi h: 10:55 | Poco Nuvoloso | 32 | 20 | 49 | 1017 | 10 | O/SO 20.3 | |
| Oggi h: 09:55 | Poco Nuvoloso | 31 | 20 | 52 | 1017 | 10 | SO 18.5 | |
| Oggi h: 08:55 | Poco Nuvoloso | 27 | 21 | 69 | 1017 | 10 | S/SO 7.4 | |
| Oggi h: 07:55 | Poco Nuvoloso | 23 | 21 | 88 | 1017 | 10 | N 0 | |
| Oggi h: 06:55 | Poco Nuvoloso | 20 | 19 | 93 | 1016 | 10 | N 0 | |
| Oggi h: 05:55 | Sereno | 19 | 19 | 100 | 1016 | 10 | S 7.4 | |
| Oggi h: 04:55 | Sereno | 20 | 20 | 100 | 1016 | 10 | N 0 | |
| Oggi h: 03:55 | Sereno | 20 | 20 | 100 | 1015 | 10 | S 7.4 | |
| Oggi h: 02:55 | Sereno | 20 | 20 | 100 | 1015 | 10 | N 5.5 | |
| Oggi h: 01:55 | Sereno | 20 | 20 | 100 | 1015 | 10 | S 7.4 | |
| Oggi h: 00:55 | Sereno | 21 | 20 | 94 | 1016 | 10 | N 0 | |
| Ieri h: 23:55 | Sereno | 22 | 20 | 88 | 1015 | 14 | N 0 | |
| Ieri h: 22:55 | Sereno | 23 | 20 | 83 | 1015 | 10 | N 0 | |
| Ieri h: 21:55 | Sereno | 23 | 20 | 83 | 1015 | 10 | N 0 | |
| Ieri h: 20:55 | Sereno | 25 | 19 | 69 | 1015 | 10 | N 0 | |
| Ieri h: 19:55 | Sereno | 26 | 18 | 61 | 1015 | 10 | N 0 | |
| Ieri h: 18:55 | Sereno | 29 | 19 | 54 | 1015 | 10 | S 9.3 | |
| Ieri h: 17:55 | Sereno | 31 | 18 | 45 | 1015 | 10 | S 11.1 | |
| Ieri h: 16:55 | Sereno | 33 | 18 | 41 | 1015 | 10 | S/SO 14.8 | |
| Ieri h: 15:55 | Sereno | 34 | 17 | 36 | 1015 | 10 | S 22.2 | |
| Ieri h: 14:55 | Sereno | 34 | 18 | 38 | 1015 | 10 | S 16.7 | |



